Latest Coastal Weather Observations for Port Fairy

IDV60701

Issued at 5:31 am EST Wednesday 25 May 2016 (issued every 10 minutes, with the page automatically refreshed every 10 minutes)

About coastal observations | Map of coastal stations | Coastal observations for VIC | Marine services | Other Formats
Station Details ID: 090175 Name: PORT FAIRY AWS Lat: -38.39 Lon: 142.23 Height: 10.0 m
Data from the previous 72 hours. | See also: Recent months at Port Fairy
Date/Time
EST
Temp

°C
Wind Pressure Rain
since 9am
mm
Weather Cloud Vis
km
Sea
Height
m
Swell
Dir
 
Speed
knots
Gust
knots
hPa Trend Height
m
Period
s
Dir
25/05:30am 11.3 NNE 6 10 1011.9 - 0.0 - - - - - - -
25/05:00am 11.4 NNE 7 11 1012.4 - 0.0 - - - - - - -
25/04:30am 11.5 N 6 9 1012.8 - 0.0 - - - - - - -
25/04:00am 11.3 NNE 6 9 1012.6 - 0.0 - - - - - - -
25/03:30am 11.3 NNE 6 8 1013.0 - 0.0 - - - - - - -
25/03:00am 11.5 NNE 6 7 1013.7 - 0.0 - - - - - - -
25/02:30am 11.7 N 6 9 1014.1 - 0.0 - - - - - - -
25/02:00am 11.3 NNE 7 11 1014.3 - 0.0 - - - - - - -
25/01:30am 10.9 N 6 8 1015.0 - 0.0 - - - - - - -
25/01:00am 11.1 N 6 9 1015.4 - 0.0 - - - - - - -
25/12:30am 10.7 NNE 5 8 1015.9 - 0.0 - - - - - - -
25/12:00am 10.8 N 5 8 1016.2 - 0.0 - - - - - - -
 
Date/Time
EST
Temp

°C
Wind Pressure Rain
since 9am
mm
Weather Cloud Vis
km
Sea
Height
m
Swell
Dir
 
Speed
knots
Gust
knots
hPa Trend Height
m
Period
s
Dir
24/11:30pm 10.9 N 6 9 1016.4 - 0.0 - - - - - - -
24/11:00pm 10.7 N 5 7 1016.8 - 0.0 - - - - - - -
24/10:30pm 11.0 NNE 5 8 1016.9 - 0.0 - - - - - - -
24/10:00pm 11.1 NNE 4 6 1017.3 - 0.0 - - - - - - -
24/09:30pm 11.4 N 5 7 1017.7 - 0.0 - - - - - - -
24/09:00pm 11.6 NNE 5 8 1017.6 - 0.0 - - - - - - -
24/08:30pm 11.9 NNE 5 8 1017.9 - 0.0 - - - - - - -
24/08:00pm 11.9 NNE 4 6 1018.2 - 0.0 - - - - - - -
24/07:30pm 12.4 NNE 5 7 1018.2 - 0.0 - - - - - - -
24/07:00pm 12.8 NE 4 5 1018.4 - 0.0 - - - - - - -
24/06:30pm 12.6 NE 3 4 1018.5 - 0.0 - - - - - - -
24/06:00pm 12.6 NE 1 2 1018.6 - 0.0 - - - - - - -
24/05:30pm 14.2 CALM 0 1 1018.4 - 0.0 - - - - - - -
24/05:00pm 15.1 WNW 2 2 1018.7 - 0.0 - - - - - - -
24/04:30pm 15.4 CALM 0 1 1018.7 - 0.0 - - - - - - -
24/04:00pm 15.9 CALM 0 1 1018.5 - 0.0 - - - - - - -
24/03:30pm 15.6 SW 4 5 1018.6 - 0.0 - - - - - - -
24/03:00pm 15.8 SW 4 5 1018.6 - 0.0 - - - - - - -
24/02:30pm 15.9 WSW 3 5 1018.7 - 0.0 - - - - - - -
24/02:00pm 16.3 SW 4 6 1019.2 - 0.0 - - - - - - -
24/01:30pm 15.7 WSW 6 8 1019.4 - 0.0 - - - - - - -
24/01:00pm 15.9 WSW 7 10 1019.5 - 0.0 - - - - - - -
24/12:30pm 15.8 W 5 8 1019.9 - 0.0 - - - - - - -
24/12:00pm 15.5 W 5 8 1020.4 - 0.0 - - - - - - -
24/11:30am 15.5 W 5 8 1020.8 - 0.0 - - - - - - -
24/11:00am 15.8 NW 4 6 1021.1 - 0.0 - - - - - - -
24/10:30am 14.9 NW 4 7 1021.4 - 0.0 - - - - - - -
24/10:00am 13.5 NW 4 7 1021.5 - 0.0 - - - - - - -
24/09:30am 12.9 NW 5 7 1021.4 - 0.0 - - - - - - -
24/09:00am 11.6 NW 4 9 1021.3 - 7.2 - - - - - - -
24/08:30am 11.2 NNW 4 5 1021.3 - 7.2 - - - - - - -
24/08:00am 12.9 W 8 12 1021.1 - 7.2 - - - - - - -
24/07:30am 13.5 SW 11 15 1021.0 - 7.2 - - - - - - -
24/07:00am 13.2 WSW 11 15 1020.7 - 7.2 - - - - - - -
24/06:30am 13.2 WSW 11 16 1020.2 - 7.2 - - - - - - -
24/06:00am 13.4 SW 12 18 1020.1 - 7.2 - - - - - - -
24/05:30am 13.6 SW 13 17 1019.9 - 7.2 - - - - - - -
24/05:00am 13.6 WSW 13 19 1019.9 - 7.2 - - - - - - -
24/04:30am 13.3 WSW 15 21 1019.8 - 7.2 - - - - - - -
24/04:00am 13.5 SW 15 23 1019.5 - 7.2 - - - - - - -
24/03:30am 13.7 WSW 14 19 1019.6 - 7.2 - - - - - - -
24/03:00am 13.6 WSW 15 19 1019.6 - 7.2 - - - - - - -
24/02:30am 11.0 W 7 16 1019.7 - 7.2 - - - - - - -
24/02:00am 9.9 WNW 5 9 1019.6 - 7.2 - - - - - - -
24/01:30am 9.8 NW 6 13 1019.4 - 7.2 - - - - - - -
24/01:00am 9.9 NW 5 8 1019.5 - 7.2 - - - - - - -
24/12:30am 10.3 NW 5 9 1019.5 - 7.2 - - - - - - -
24/12:00am 10.8 NW 7 11 1019.7 - 7.2 - - - - - - -
 
Date/Time
EST
Temp

°C
Wind Pressure Rain
since 9am
mm
Weather Cloud Vis
km
Sea
Height
m
Swell
Dir
 
Speed
knots
Gust
knots
hPa Trend Height
m
Period
s
Dir
23/11:30pm 12.6 WNW 8 15 1019.7 - 7.2 - - - - - - -
23/11:00pm 13.8 WSW 14 19 1019.8 - 7.2 - - - - - - -
23/10:30pm 12.8 WNW 11 19 1019.9 - 7.2 - - - - - - -
23/10:00pm 13.9 W 15 21 1019.7 - 7.2 - - - - - - -
23/09:30pm 13.8 WSW 16 20 1019.6 - 7.2 - - - - - - -
23/09:00pm 13.6 W 15 20 1019.5 - 7.2 - - - - - - -
23/08:30pm 13.4 W 15 21 1019.4 - 7.2 - - - - - - -
23/08:00pm 13.4 WSW 15 20 1019.3 - 7.2 - - - - - - -
23/07:30pm 13.2 W 14 20 1019.0 - 7.2 - - - - - - -
23/07:00pm 13.3 WSW 17 23 1018.7 - 7.2 - - - - - - -
23/06:30pm 13.4 WSW 18 24 1018.5 - 7.2 - - - - - - -
23/06:00pm 13.2 WSW 19 25 1018.1 - 7.2 - - - - - - -
23/05:30pm 12.9 WSW 15 23 1017.8 - 7.2 - - - - - - -
23/05:00pm 12.4 W 11 17 1017.6 - 7.2 - - - - - - -
23/04:30pm 12.5 SW 16 21 1017.3 - 5.4 - - - - - - -
23/04:22pm 12.6 SW 15 21 1017.3 - 4.4 - - - - - - -
23/04:00pm 13.1 WNW 7 10 1017.1 - 4.0 - - - - - - -
23/03:30pm 12.5 WNW 8 11 1017.2 - 4.0 - - - - - - -
23/03:00pm 12.1 WSW 12 18 1017.2 - 2.6 Rain - - - - - -
23/02:30pm 12.9 WNW 9 15 1017.0 - 2.2 - - - - - - -
23/02:00pm 12.8 W 10 15 1017.0 - 2.0 - - - - - - -
23/01:30pm 12.1 WNW 13 18 1017.4 - 2.0 - - - - - - -
23/01:00pm 11.4 WNW 8 16 1017.7 - 1.6 - - - - - - -
23/12:30pm 11.9 NW 8 16 1017.4 - 1.0 - - - - - - -
23/12:00pm 13.6 NW 9 18 1017.4 - 0.0 - - - - - - -
23/11:30am 14.5 W 10 15 1017.6 - 0.0 - - - - - - -
23/11:00am 14.2 WNW 10 17 1017.7 - 0.0 - - - - - - -
23/10:30am 13.4 WNW 9 20 1017.4 - 0.0 - - - - - - -
23/10:00am 12.3 WNW 9 15 1017.3 - 0.0 - - - - - - -
23/09:42am 13.1 W 14 24 1017.6 - 0.0 - - - - - - -
23/09:30am 13.7 WSW 20 26 1017.2 - 0.0 - - - - - - -
23/09:00am 13.1 W 17 25 1016.9 - 6.0 - - - - - - -
23/08:44am 13.1 W 18 29 1016.5 - 6.0 - - - - - - -
23/08:30am 13.1 W 19 26 1016.2 - 6.0 - - - - - - -
23/08:02am 12.8 W 18 28 1015.9 - 6.0 - - - - - - -
23/08:00am 12.8 W 20 28 1015.9 - 6.0 - - - - - - -
23/07:31am 12.5 W 19 30 1015.1 - 6.0 - - - - - - -
23/07:30am 12.5 W 20 30 1015.1 - 6.0 - - - - - - -
23/07:14am 12.8 WSW 21 31 1014.7 - 6.0 - - - - - - -
23/07:00am 12.8 WSW 23 30 1014.5 - 6.0 - - - - - - -
23/06:49am 12.6 WSW 24 34 1014.2 - 6.0 - - - - - - -
23/06:30am 12.7 WSW 24 33 1013.8 - 6.0 - - - - - - -
23/06:00am 11.6 WSW 23 29 1013.6 - 6.0 Recent precip. - - - - - -
23/05:32am 12.6 WSW 25 39 1013.3 - 5.2 - - - - - - -
23/05:30am 12.5 W 23 32 1012.9 - 5.2 - - - - - - -
23/05:02am 11.6 W 16 26 1012.0 - 5.0 - - - - - - -
23/05:00am 11.6 W 16 25 1011.9 - 5.0 - - - - - - -
23/04:47am 10.8 W 15 27 1011.9 - 5.0 - - - - - - -
23/04:30am 10.4 NW 12 22 1011.4 - 4.0 - - - - - - -
23/04:00am 10.5 NW 9 19 1010.6 - 3.8 - - - - - - -
23/03:30am 10.5 NW 8 13 1010.4 - 3.6 - - - - - - -
23/03:00am 10.2 NW 8 15 1009.6 - 3.6 Recent precip. - - - - - -
23/02:30am 10.8 NW 9 16 1009.8 - 3.6 - - - - - - -
23/02:00am 12.2 WNW 13 24 1009.7 - 3.4 - - - - - - -
23/01:50am 12.3 WNW 15 29 1009.6 - 3.4 - - - - - - -
23/01:30am 12.3 NNW 12 20 1009.0 - 3.4 - - - - - - -
23/01:00am 12.4 NNW 10 14 1009.0 - 3.4 - - - - - - -
23/12:30am 12.5 NNW 9 15 1008.7 - 3.4 - - - - - - -
23/12:00am 12.5 NNW 9 16 1008.9 - 3.4 - - - - - - -
 
Date/Time
EST
Temp

°C
Wind Pressure Rain
since 9am
mm
Weather Cloud Vis
km
Sea
Height
m
Swell
Dir
 
Speed
knots
Gust
knots
hPa Trend Height
m
Period
s
Dir
22/11:30pm 12.6 NNW 9 15 1008.5 - 3.4 - - - - - - -
22/11:00pm 13.0 NNW 10 16 1009.3 - 3.4 - - - - - - -
22/10:30pm 13.6 NW 8 12 1009.1 - 3.0 - - - - - - -
22/10:00pm 14.0 NW 8 16 1009.3 - 2.8 - - - - - - -
22/09:30pm 14.7 NNW 8 13 1009.0 - 1.0 - - - - - - -
22/09:00pm 14.8 NNW 11 15 1008.7 - 1.0 Rain - - - - - -
22/08:30pm 15.4 N 9 15 1008.7 - 0.6 - - - - - - -
22/08:00pm 15.6 NNW 9 18 1008.8 - 0.6 - - - - - - -
22/07:30pm 15.9 NNW 7 11 1008.4 - 0.6 - - - - - - -
22/07:00pm 16.1 NNW 10 15 1008.2 - 0.6 - - - - - - -
22/06:30pm 16.0 NNW 7 12 1008.2 - 0.4 - - - - - - -
22/06:00pm 17.3 NW 6 9 1008.5 - 0.0 - - - - - - -
22/05:30pm 19.1 N 6 9 1007.5 - 0.0 - - - - - - -
22/05:00pm 19.5 NNW 9 17 1007.7 - 0.0 - - - - - - -
22/04:30pm 19.4 N 11 18 1007.8 - 0.0 - - - - - - -
22/04:00pm 19.8 N 11 17 1007.4 - 0.0 - - - - - - -
22/03:30pm 19.8 N 14 19 1007.1 - 0.0 - - - - - - -
22/03:00pm 19.8 N 16 27 1007.4 - 0.0 - - - - - - -
22/02:45pm 19.8 N 16 26 1007.3 - 0.0 - - - - - - -
22/02:30pm 19.4 N 15 22 1007.3 - 0.0 - - - - - - -
22/02:00pm 19.2 N 15 28 1007.4 - 0.0 - - - - - - -
22/01:30pm 19.0 N 13 19 1008.1 - 0.0 - - - - - - -
22/01:09pm 19.0 N 15 25 1008.1 - 0.0 - - - - - - -
22/01:00pm 19.0 N 17 25 1008.3 - 0.0 - - - - - - -
22/12:30pm 19.2 N 14 23 1009.1 - 0.0 - - - - - - -
22/12:00pm 18.4 NNE 9 18 1009.8 - 0.0 - - - - - - -
22/11:30am 17.5 NNE 9 20 1010.5 - 0.0 - - - - - - -
22/11:00am 16.1 NNE 6 9 1011.1 - 0.0 - - - - - - -
22/10:30am 15.3 NNE 6 12 1011.6 - 0.0 - - - - - - -
22/10:00am 14.2 NE 7 11 1011.8 - 0.0 - - - - - - -
22/09:30am 13.3 NNE 8 12 1012.3 - 0.0 - - - - - - -
22/09:00am 12.7 NNE 10 16 1012.1 - 0.0 - - - - - - -
22/08:30am 12.1 NNE 8 16 1012.4 - 0.0 - - - - - - -
22/08:00am 11.8 NE 9 13 1012.6 - 0.0 - - - - - - -
22/07:30am 11.7 NE 8 11 1013.0 - 0.0 - - - - - - -
22/07:00am 11.5 NE 7 11 1013.3 - 0.0 - - - - - - -
22/06:30am 11.5 NE 9 13 1013.7 - 0.0 - - - - - - -
22/06:00am 11.5 NE 8 13 1013.8 - 0.0 - - - - - - -

Other Formats:

Comma delimited format used in spreadsheet applications
http://www.bom.gov.au/fwo/IDV60701/IDV60701.94830.axf

JavaScript Object Notation format (JSON) in row-major order
http://www.bom.gov.au/fwo/IDV60701/IDV60701.94830.json